Time;durP1;ratioP1;P1;durP2;ratioP2;P2;SDS_P1;SDS_P2;PMS_P1;PMS_P2;Temp;Humidity;BMP_temperature;BMP_pressure;BME280_temperature;BME280_humidity;BME280_pressure;Samples;Min_cycle;Max_cycle;Signal;HPM_P1;HPM_P2
2022/06/07 00:02:01;;;;;;;17.20;9.23;;;12.20;99.90;;;;;;5064235;28;20058;-74
2022/06/07 00:04:27;;;;;;;19.15;9.55;;;12.20;99.90;;;;;;5063306;28;20175;-74
2022/06/07 00:06:52;;;;;;;16.92;8.52;;;12.20;99.90;;;;;;5029618;28;20362;-74
2022/06/07 00:09:18;;;;;;;18.90;9.55;;;12.20;99.90;;;;;;5030085;28;20048;-75
2022/06/07 00:11:44;;;;;;;20.08;9.82;;;12.20;99.90;;;;;;5056311;28;20605;-74
2022/06/07 00:14:10;;;;;;;18.52;9.98;;;12.20;99.90;;;;;;5077943;28;20056;-74
2022/06/07 00:16:36;;;;;;;17.55;9.15;;;12.30;99.90;;;;;;5044059;28;20041;-75
2022/06/07 00:19:03;;;;;;;19.55;9.38;;;12.30;99.90;;;;;;5044616;28;20051;-74
2022/06/07 00:21:29;;;;;;;21.15;9.55;;;12.30;99.90;;;;;;5046028;28;20120;-75
2022/06/07 00:23:55;;;;;;;18.55;9.93;;;12.30;99.90;;;;;;5030382;28;20052;-74
2022/06/07 00:26:21;;;;;;;20.50;9.50;;;12.30;99.90;;;;;;5062301;28;20041;-75
2022/06/07 00:28:48;;;;;;;20.58;10.02;;;12.30;99.90;;;;;;5043140;28;20048;-74
2022/06/07 00:31:14;;;;;;;18.83;9.15;;;12.30;99.90;;;;;;5067629;28;20586;-74
2022/06/07 00:33:40;;;;;;;19.90;10.48;;;12.30;99.90;;;;;;5050410;28;20055;-74
2022/06/07 00:36:08;;;;;;;16.65;9.75;;;12.30;99.90;;;;;;5068564;28;20037;-75
2022/06/07 00:38:35;;;;;;;23.73;9.10;;;12.30;99.90;;;;;;5081205;28;20067;-74
2022/06/07 00:41:03;;;;;;;17.05;9.90;;;12.30;99.90;;;;;;5071006;28;20041;-74
2022/06/07 00:43:30;;;;;;;16.83;10.07;;;12.30;99.90;;;;;;5043204;28;20049;-75
2022/06/07 00:45:57;;;;;;;18.00;10.13;;;12.20;99.90;;;;;;5026140;28;20111;-74
2022/06/07 00:48:25;;;;;;;19.73;10.45;;;12.30;99.90;;;;;;5072526;28;20053;-74
2022/06/07 00:51:02;;;;;;;18.98;9.45;;;12.30;99.90;;;;;;5052051;28;21100;-75
2022/06/07 00:53:31;;;;;;;19.25;10.38;;;12.30;99.90;;;;;;5058779;28;20052;-74
2022/06/07 00:55:58;;;;;;;21.55;10.90;;;12.30;99.90;;;;;;5019444;28;20041;-74
2022/06/07 00:58:28;;;;;;;23.85;11.38;;;12.30;99.90;;;;;;5062513;28;20044;-73
2022/06/07 01:00:56;;;;;;;19.85;10.70;;;12.30;99.90;;;;;;5048479;28;20056;-74
2022/06/07 01:03:22;;;;;;;25.35;11.75;;;12.30;99.90;;;;;;5067334;28;20044;-74
2022/06/07 01:05:52;;;;;;;20.30;11.73;;;12.30;99.90;;;;;;5060651;28;20045;-74
2022/06/07 01:11:04;;;;;;;27.15;12.27;;;12.40;99.90;;;;;;5042641;28;20055;-74
2022/06/07 01:13:32;;;;;;;25.63;12.95;;;12.40;99.90;;;;;;5039276;28;20116;-74
2022/06/07 01:16:01;;;;;;;25.15;12.52;;;12.40;99.90;;;;;;5034014;28;20079;-73
2022/06/07 01:18:29;;;;;;;23.73;13.93;;;12.40;99.90;;;;;;5051780;28;20048;-74
2022/06/07 01:21:14;;;;;;;24.95;13.90;;;12.40;99.90;;;;;;5051496;28;20049;-73
2022/06/07 01:23:42;;;;;;;28.20;13.10;;;12.40;99.90;;;;;;5082116;28;20132;-73
2022/06/07 01:26:10;;;;;;;26.15;14.52;;;12.40;99.90;;;;;;5070318;28;20073;-74
2022/06/07 01:28:36;;;;;;;27.52;14.40;;;12.40;99.90;;;;;;5015684;28;20052;-75
2022/06/07 01:31:02;;;;;;;26.77;14.30;;;12.40;99.90;;;;;;5050878;28;20056;-74
2022/06/07 01:33:28;;;;;;;28.33;14.05;;;12.40;99.90;;;;;;5083162;28;20045;-74
2022/06/07 01:36:11;;;;;;;24.77;13.32;;;12.50;99.90;;;;;;5023046;28;20516;-74
2022/06/07 01:38:39;;;;;;;25.52;13.48;;;12.50;99.90;;;;;;5046337;28;20048;-74
2022/06/07 01:43:51;;;;;;;24.73;14.02;;;12.50;99.90;;;;;;5030153;28;20054;-74
2022/06/07 01:46:18;;;;;;;26.98;15.23;;;12.50;99.90;;;;;;5037317;28;20094;-74
2022/06/07 01:48:46;;;;;;;23.88;14.20;;;12.50;99.90;;;;;;5023603;28;20063;-75
2022/06/07 01:51:12;;;;;;;26.98;14.75;;;12.50;99.90;;;;;;5050736;28;20039;-74
2022/06/07 01:53:39;;;;;;;26.65;14.27;;;12.50;99.90;;;;;;5037956;28;20042;-73
2022/06/07 01:56:13;;;;;;;28.27;14.48;;;12.60;99.90;;;;;;5031613;28;20048;-74
2022/06/07 01:58:41;;;;;;;28.15;13.82;;;12.60;99.90;;;;;;5045158;28;20523;-74
2022/06/07 02:01:08;;;;;;;25.23;14.82;;;12.60;99.90;;;;;;5037907;28;20382;-74
2022/06/07 02:03:34;;;;;;;27.25;14.48;;;12.60;99.90;;;;;;5058397;28;20040;-74
2022/06/07 02:06:04;;;;;;;25.00;13.25;;;12.60;99.90;;;;;;5082641;28;20044;-74
2022/06/07 02:08:31;;;;;;;23.23;12.25;;;12.60;99.90;;;;;;5061745;28;20055;-75
2022/06/07 02:11:15;;;;;;;25.60;13.95;;;12.60;99.90;;;;;;5035938;28;20060;-74
2022/06/07 02:13:42;;;;;;;24.35;13.43;;;12.60;99.90;;;;;;5076969;28;20090;-74
2022/06/07 02:16:08;;;;;;;25.85;13.38;;;12.60;99.90;;;;;;5050127;28;20053;-74
2022/06/07 02:18:35;;;;;;;23.33;13.18;;;12.60;99.90;;;;;;5080321;28;20119;-74
2022/06/07 02:21:01;;;;;;;24.25;12.90;;;12.70;99.90;;;;;;5050421;28;20033;-74
2022/06/07 02:23:28;;;;;;;22.10;12.43;;;12.70;99.90;;;;;;5059925;28;20064;-74
2022/06/07 02:26:01;;;;;;;22.20;12.98;;;12.60;99.90;;;;;;5014310;28;20049;-74
2022/06/07 02:28:30;;;;;;;20.60;11.13;;;12.70;99.90;;;;;;5031064;28;20121;-74
2022/06/07 02:30:58;;;;;;;20.10;12.70;;;12.60;99.90;;;;;;5030659;28;20049;-74
2022/06/07 02:33:26;;;;;;;23.35;11.25;;;12.70;99.90;;;;;;5048180;28;20049;-74
2022/06/07 02:35:52;;;;;;;19.83;11.00;;;12.70;99.90;;;;;;5032916;28;20048;-74
2022/06/07 02:38:19;;;;;;;18.10;11.95;;;12.70;99.90;;;;;;5033905;28;20119;-75
2022/06/07 02:40:47;;;;;;;17.60;9.25;;;12.70;99.90;;;;;;5065634;28;20053;-74
2022/06/07 02:43:13;;;;;;;20.42;11.63;;;12.70;99.90;;;;;;5050185;28;20144;-75
2022/06/07 02:45:38;;;;;;;21.73;12.85;;;12.80;99.90;;;;;;5030479;28;20139;-75
2022/06/07 02:48:06;;;;;;;17.27;10.90;;;12.70;99.90;;;;;;5052835;28;20057;-75
2022/06/07 02:50:32;;;;;;;20.67;11.77;;;12.80;99.90;;;;;;5014425;28;20043;-75
2022/06/07 02:52:57;;;;;;;18.70;11.93;;;12.70;99.90;;;;;;5041494;28;20119;-74
2022/06/07 02:55:24;;;;;;;19.45;12.20;;;12.70;99.90;;;;;;5076089;28;20033;-75
2022/06/07 02:57:50;;;;;;;22.17;11.20;;;12.70;99.90;;;;;;5058301;28;20481;-75
2022/06/07 03:00:17;;;;;;;20.17;12.38;;;12.70;99.90;;;;;;5060893;28;20057;-74
2022/06/07 03:02:43;;;;;;;21.33;11.75;;;12.70;99.90;;;;;;5052364;28;20077;-75
2022/06/07 03:05:12;;;;;;;19.58;11.85;;;12.70;99.90;;;;;;5039975;28;20068;-75
2022/06/07 03:07:39;;;;;;;21.98;13.48;;;12.70;99.90;;;;;;5073472;28;20036;-75
2022/06/07 03:10:07;;;;;;;22.02;12.25;;;12.70;99.90;;;;;;5056237;28;20051;-75
2022/06/07 03:12:33;;;;;;;22.23;12.75;;;12.70;99.90;;;;;;5041073;28;20040;-75
2022/06/07 03:14:59;;;;;;;17.70;11.20;;;12.70;99.90;;;;;;5077227;28;20041;-75
2022/06/07 03:17:25;;;;;;;21.17;12.00;;;12.70;99.90;;;;;;5026868;28;20052;-75
2022/06/07 03:19:57;;;;;;;21.30;12.80;;;12.70;99.90;;;;;;5031634;28;20480;-75
2022/06/07 03:22:23;;;;;;;23.02;12.43;;;12.70;99.90;;;;;;5058500;28;20400;-74
2022/06/07 03:24:49;;;;;;;23.83;13.10;;;12.70;99.90;;;;;;5076901;28;20581;-75
2022/06/07 03:27:16;;;;;;;25.20;14.30;;;12.70;99.90;;;;;;5043003;28;20080;-76
2022/06/07 03:29:41;;;;;;;22.33;12.90;;;12.70;99.90;;;;;;5043312;28;20048;-74
2022/06/07 03:32:09;;;;;;;22.88;13.82;;;12.70;99.90;;;;;;5059791;28;20660;-75
2022/06/07 03:34:35;;;;;;;23.50;13.18;;;12.70;99.90;;;;;;5044287;28;20492;-75
2022/06/07 03:37:01;;;;;;;24.27;13.40;;;12.70;99.90;;;;;;5058547;28;20053;-77
2022/06/07 03:39:27;;;;;;;19.98;13.00;;;12.70;99.90;;;;;;5058851;28;20186;-74
2022/06/07 03:41:54;;;;;;;22.20;13.60;;;12.70;99.90;;;;;;5059029;28;20046;-74
2022/06/07 03:44:20;;;;;;;25.40;13.77;;;12.70;99.90;;;;;;5041583;28;20415;-76
2022/06/07 03:46:47;;;;;;;22.25;11.57;;;12.80;99.90;;;;;;5044111;28;20052;-76
2022/06/07 03:49:13;;;;;;;22.52;13.23;;;12.80;99.90;;;;;;5046152;28;20102;-77
2022/06/07 03:51:39;;;;;;;23.33;13.23;;;12.80;99.90;;;;;;5079637;28;20049;-76
2022/06/07 03:54:06;;;;;;;23.23;13.35;;;12.80;99.90;;;;;;5060991;28;20044;-75
2022/06/07 03:56:32;;;;;;;23.83;13.48;;;12.80;99.90;;;;;;5032112;28;20053;-76
2022/06/07 03:58:58;;;;;;;24.95;12.82;;;12.80;99.90;;;;;;5047022;28;20075;-75
2022/06/07 04:01:26;;;;;;;21.58;13.50;;;12.80;99.90;;;;;;5046765;28;20486;-76
2022/06/07 04:03:54;;;;;;;23.35;12.65;;;12.80;99.90;;;;;;5047406;28;20482;-75
2022/06/07 04:06:26;;;;;;;25.27;12.77;;;12.90;99.90;;;;;;5052221;28;20048;-75
2022/06/07 04:08:53;;;;;;;28.15;12.43;;;12.90;99.90;;;;;;5079877;28;20055;-75
2022/06/07 04:11:21;;;;;;;19.63;11.60;;;12.90;99.90;;;;;;5032014;28;20045;-76
2022/06/07 04:13:48;;;;;;;19.23;10.20;;;12.90;99.90;;;;;;5078637;28;20072;-76
2022/06/07 04:16:18;;;;;;;23.70;12.48;;;12.90;99.90;;;;;;5046374;28;20563;-76
2022/06/07 04:18:44;;;;;;;24.35;13.10;;;12.90;99.90;;;;;;5046507;28;20521;-76
2022/06/07 04:21:11;;;;;;;26.20;12.20;;;12.90;99.90;;;;;;5030784;28;20052;-75
2022/06/07 04:23:37;;;;;;;23.80;11.75;;;12.90;99.90;;;;;;5046576;28;20984;-76
2022/06/07 04:26:12;;;;;;;21.60;11.63;;;12.90;99.90;;;;;;5046517;28;20037;-75
2022/06/07 04:28:37;;;;;;;23.63;12.65;;;12.90;99.90;;;;;;5038439;28;20041;-76
2022/06/07 04:31:10;;;;;;;21.13;12.88;;;12.90;99.90;;;;;;5063033;28;20051;-77
2022/06/07 04:33:35;;;;;;;19.60;12.15;;;12.90;99.90;;;;;;5042309;28;20049;-75
2022/06/07 04:36:02;;;;;;;21.30;13.95;;;12.90;99.90;;;;;;5063632;28;20393;-75
2022/06/07 04:38:28;;;;;;;23.27;12.55;;;12.90;99.90;;;;;;5047776;28;20389;-75
2022/06/07 04:40:54;;;;;;;22.13;11.75;;;12.90;99.90;;;;;;5041952;28;20041;-76
2022/06/07 04:43:19;;;;;;;19.63;11.05;;;12.90;99.90;;;;;;5032902;28;20045;-75
2022/06/07 04:45:45;;;;;;;22.33;13.07;;;12.90;99.90;;;;;;5049090;28;20053;-76
2022/06/07 04:48:12;;;;;;;31.58;14.43;;;12.90;99.90;;;;;;5050321;28;20049;-75
2022/06/07 04:50:38;;;;;;;21.98;12.25;;;12.90;99.90;;;;;;5062454;28;20067;-75
2022/06/07 04:53:04;;;;;;;29.67;13.90;;;12.90;99.90;;;;;;5030730;28;20046;-76
2022/06/07 04:55:30;;;;;;;23.33;11.48;;;12.90;99.90;;;;;;5064280;28;20131;-76
2022/06/07 04:57:55;;;;;;;27.02;13.75;;;12.90;99.90;;;;;;5061128;28;20466;-77
2022/06/07 05:00:21;;;;;;;22.50;12.95;;;12.90;99.90;;;;;;5062135;28;20052;-76
2022/06/07 05:02:48;;;;;;;20.85;10.60;;;12.80;99.90;;;;;;5051543;28;20052;-75
2022/06/07 05:05:15;;;;;;;27.83;15.52;;;12.80;99.90;;;;;;5064228;28;20048;-75
2022/06/07 05:07:41;;;;;;;24.40;13.55;;;12.80;99.90;;;;;;5058097;28;20107;-75
2022/06/07 05:10:10;;;;;;;23.58;13.57;;;12.80;99.90;;;;;;5059072;28;20053;-75
2022/06/07 05:12:37;;;;;;;23.63;11.88;;;12.80;99.90;;;;;;5045755;28;20044;-77
2022/06/07 05:15:04;;;;;;;19.63;12.13;;;12.70;99.90;;;;;;5073870;28;20037;-74
2022/06/07 05:17:30;;;;;;;25.55;13.07;;;12.70;99.90;;;;;;5076784;28;20053;-75
2022/06/07 05:19:57;;;;;;;18.42;12.60;;;12.70;99.90;;;;;;5075122;28;20041;-77
2022/06/07 05:22:24;;;;;;;23.58;13.27;;;12.70;99.90;;;;;;5074815;28;20053;-75
2022/06/07 05:24:51;;;;;;;21.48;12.10;;;12.80;99.90;;;;;;5061661;28;20056;-76
2022/06/07 05:27:21;;;;;;;20.13;11.75;;;12.70;99.90;;;;;;5046027;28;20139;-76
2022/06/07 05:29:50;;;;;;;20.75;12.40;;;12.70;99.90;;;;;;5057356;28;20083;-76
2022/06/07 05:32:17;;;;;;;22.83;12.55;;;12.70;99.90;;;;;;5046265;28;20080;-76
2022/06/07 05:34:43;;;;;;;19.42;11.15;;;12.70;99.90;;;;;;5026867;28;20041;-76
2022/06/07 05:37:21;;;;;;;21.08;12.95;;;12.70;99.90;;;;;;5059394;28;20099;-76
2022/06/07 05:39:47;;;;;;;16.67;10.32;;;12.70;99.90;;;;;;5044772;28;20040;-76
2022/06/07 05:42:15;;;;;;;26.50;13.90;;;12.70;99.90;;;;;;5059943;28;20053;-76
2022/06/07 05:44:41;;;;;;;23.35;13.55;;;12.70;99.90;;;;;;5079203;28;20049;-75
2022/06/07 05:47:08;;;;;;;27.05;13.85;;;12.70;99.90;;;;;;5061806;28;20122;-75
2022/06/07 05:49:34;;;;;;;22.58;12.75;;;12.60;99.90;;;;;;5046132;28;20083;-75
2022/06/07 05:52:01;;;;;;;24.38;14.90;;;12.50;99.90;;;;;;5040830;28;20064;-75
2022/06/07 05:54:32;;;;;;;24.38;12.65;;;12.50;99.90;;;;;;5058180;28;20056;-76
2022/06/07 05:56:58;;;;;;;25.83;12.68;;;12.40;99.90;;;;;;5038115;28;20084;-75
2022/06/07 05:59:24;;;;;;;21.77;12.55;;;12.40;99.90;;;;;;5060605;28;20124;-75
2022/06/07 06:01:50;;;;;;;21.70;10.60;;;12.40;99.90;;;;;;5039513;28;20037;-76
2022/06/07 06:04:16;;;;;;;12.90;7.13;;;12.30;99.90;;;;;;5077373;28;20059;-76
2022/06/07 06:06:43;;;;;;;14.20;7.80;;;12.30;99.90;;;;;;5053893;28;20042;-75
2022/06/07 06:11:54;;;;;;;15.63;8.13;;;12.20;99.90;;;;;;5075227;28;20049;-76
2022/06/07 06:14:21;;;;;;;10.95;7.47;;;12.20;99.90;;;;;;5033558;28;20174;-75
2022/06/07 06:16:47;;;;;;;15.90;7.78;;;12.20;99.90;;;;;;5060133;28;20048;-74
2022/06/07 06:19:13;;;;;;;14.57;8.13;;;12.30;99.90;;;;;;5031992;28;20045;-75
2022/06/07 06:21:43;;;;;;;14.18;7.32;;;12.30;99.90;;;;;;5074875;28;20045;-75
2022/06/07 06:24:10;;;;;;;11.35;6.68;;;12.30;99.90;;;;;;5070821;28;20049;-75
2022/06/07 06:26:37;;;;;;;11.85;6.55;;;12.30;99.90;;;;;;5047868;28;20128;-75
2022/06/07 06:29:04;;;;;;;9.40;6.40;;;12.30;99.90;;;;;;5075314;28;20098;-75
2022/06/07 06:31:30;;;;;;;10.50;5.57;;;12.40;99.90;;;;;;5025615;28;20049;-75
2022/06/07 06:33:56;;;;;;;10.57;6.03;;;12.40;99.90;;;;;;5083786;28;20045;-75
2022/06/07 06:36:26;;;;;;;11.35;5.38;;;12.40;99.90;;;;;;5034052;28;20041;-76
2022/06/07 06:38:53;;;;;;;8.25;4.75;;;12.30;99.90;;;;;;5054701;28;20045;-75
2022/06/07 06:41:24;;;;;;;6.90;4.30;;;12.40;99.90;;;;;;5066094;28;20106;-75
2022/06/07 06:43:51;;;;;;;8.35;4.60;;;12.40;99.90;;;;;;5050410;28;20551;-75
2022/06/07 06:46:29;;;;;;;5.35;3.65;;;12.40;99.90;;;;;;5034234;28;20103;-75
2022/06/07 06:48:55;;;;;;;10.07;4.35;;;12.50;99.90;;;;;;5062864;28;20111;-76
2022/06/07 06:51:25;;;;;;;6.28;3.90;;;12.50;99.90;;;;;;5049408;28;20060;-78
2022/06/07 06:53:52;;;;;;;6.63;4.63;;;12.50;99.90;;;;;;5033958;28;20041;-78
2022/06/07 06:56:22;;;;;;;7.47;4.18;;;12.60;99.90;;;;;;5051235;28;20080;-76
2022/06/07 06:58:49;;;;;;;5.85;4.10;;;12.60;99.90;;;;;;5075307;28;20110;-75
2022/06/07 07:01:18;;;;;;;6.10;4.30;;;12.60;99.90;;;;;;5084162;28;20491;-75
2022/06/07 07:03:44;;;;;;;8.73;4.70;;;12.50;99.90;;;;;;5050005;28;20109;-75
2022/06/07 07:06:13;;;;;;;7.93;4.72;;;12.40;99.90;;;;;;5079740;28;20450;-76
2022/06/07 07:08:41;;;;;;;5.70;3.92;;;12.20;99.90;;;;;;5059218;28;20091;-76
2022/06/07 07:11:21;;;;;;;10.35;4.85;;;12.10;99.90;;;;;;5062254;28;20056;-77
2022/06/07 07:13:48;;;;;;;8.55;4.78;;;12.00;99.90;;;;;;5055247;28;20489;-76
2022/06/07 07:16:18;;;;;;;9.23;5.40;;;11.90;99.90;;;;;;5045397;28;20052;-75
2022/06/07 07:18:45;;;;;;;10.65;5.40;;;11.90;99.90;;;;;;5040867;28;20040;-74
2022/06/07 07:21:18;;;;;;;7.78;4.50;;;11.80;99.90;;;;;;5081937;28;20045;-74
2022/06/07 07:23:45;;;;;;;13.75;5.88;;;11.80;99.90;;;;;;5047118;28;20379;-75
2022/06/07 07:26:13;;;;;;;14.90;5.03;;;11.90;99.90;;;;;;5050754;28;20050;-74
2022/06/07 07:28:41;;;;;;;8.73;4.90;;;12.30;99.90;;;;;;5025281;28;20548;-75
2022/06/07 07:31:12;;;;;;;11.63;5.32;;;11.90;99.90;;;;;;5030565;28;20409;-76
2022/06/07 07:33:39;;;;;;;11.00;5.30;;;12.00;99.90;;;;;;5065073;28;20043;-75
2022/06/07 07:36:05;;;;;;;9.90;5.38;;;12.00;99.90;;;;;;5042694;28;20051;-76
2022/06/07 07:38:32;;;;;;;9.60;5.35;;;12.10;99.90;;;;;;5031096;28;20040;-74
2022/06/07 07:40:58;;;;;;;12.85;5.15;;;12.10;99.90;;;;;;5029261;28;20049;-75
2022/06/07 07:43:24;;;;;;;9.15;4.15;;;12.10;99.90;;;;;;5048792;28;20040;-75
2022/06/07 07:45:55;;;;;;;9.45;3.80;;;12.10;99.90;;;;;;5060729;28;20477;-76
2022/06/07 07:48:23;;;;;;;7.70;3.53;;;12.20;99.90;;;;;;5063081;28;20562;-77
2022/06/07 07:50:49;;;;;;;5.55;3.13;;;12.20;99.90;;;;;;5048408;28;20053;-75
2022/06/07 07:53:20;;;;;;;9.02;2.83;;;12.20;99.90;;;;;;5053870;28;20052;-76
2022/06/07 07:55:48;;;;;;;4.32;2.30;;;12.20;99.90;;;;;;5053148;28;20045;-76
2022/06/07 07:58:16;;;;;;;2.78;1.60;;;12.30;99.90;;;;;;5073721;28;20053;-76
2022/06/07 08:00:44;;;;;;;4.32;1.77;;;12.30;99.90;;;;;;5038663;28;20489;-77
2022/06/07 08:03:11;;;;;;;2.72;1.70;;;12.40;99.90;;;;;;5032943;28;20064;-77
2022/06/07 08:05:37;;;;;;;6.22;2.20;;;12.40;99.90;;;;;;5051172;28;20053;-77
2022/06/07 08:08:03;;;;;;;5.07;2.10;;;12.50;99.90;;;;;;5056060;28;20045;-77
2022/06/07 08:10:30;;;;;;;4.20;1.80;;;12.60;99.90;;;;;;5067461;28;20425;-77
2022/06/07 08:13:00;;;;;;;3.25;2.10;;;13.20;99.90;;;;;;5050616;28;20049;-76
2022/06/07 08:15:29;;;;;;;6.90;2.30;;;12.80;99.90;;;;;;5034992;28;20044;-77
2022/06/07 08:17:55;;;;;;;7.18;2.15;;;13.00;99.90;;;;;;5054683;28;20063;-77
2022/06/07 08:20:22;;;;;;;8.55;2.50;;;13.10;99.90;;;;;;5062501;28;20059;-77
2022/06/07 08:22:49;;;;;;;5.53;2.00;;;13.30;99.90;;;;;;5059824;28;20174;-77
2022/06/07 08:25:16;;;;;;;5.07;1.98;;;13.30;99.90;;;;;;5031337;28;20478;-77
2022/06/07 08:27:42;;;;;;;5.88;1.70;;;13.60;99.90;;;;;;5067416;28;20044;-78
2022/06/07 08:30:08;;;;;;;5.82;2.15;;;13.50;99.90;;;;;;5037113;28;20057;-77
2022/06/07 08:32:35;;;;;;;4.05;1.90;;;13.50;99.90;;;;;;5058986;28;20040;-76
2022/06/07 08:37:45;;;;;;;4.43;2.10;;;13.50;99.90;;;;;;5045958;28;20052;-78
2022/06/07 08:40:26;;;;;;;3.65;2.10;;;13.60;99.90;;;;;;5042682;28;20057;-77
2022/06/07 08:42:55;;;;;;;8.00;2.40;;;13.50;99.90;;;;;;5060373;28;20037;-76
2022/06/07 08:45:26;;;;;;;2.60;1.70;;;13.50;99.90;;;;;;5058782;28;20119;-78
2022/06/07 08:47:56;;;;;;;2.72;1.88;;;13.50;99.90;;;;;;5077492;28;20137;-76
2022/06/07 08:50:33;;;;;;;4.47;1.90;;;13.60;99.90;;;;;;5058336;28;20074;-77
2022/06/07 08:53:18;;;;;;;6.40;2.20;;;13.50;99.90;;;;;;5059928;28;20049;-77
2022/06/07 08:55:47;;;;;;;4.32;1.98;;;13.70;99.90;;;;;;5060825;28;20045;-77
2022/06/07 08:58:27;;;;;;;4.07;2.30;;;13.60;99.90;;;;;;5046922;28;20071;-76
2022/06/07 09:00:57;;;;;;;5.80;2.10;;;13.60;99.90;;;;;;5056280;28;20044;-77
2022/06/07 09:03:47;;;;;;;5.05;2.30;;;13.60;99.90;;;;;;5041594;28;20040;-79
2022/06/07 09:06:20;;;;;;;6.18;2.28;;;13.80;99.90;;;;;;5059571;28;20040;-76
2022/06/07 09:08:57;;;;;;;2.88;1.60;;;14.10;99.90;;;;;;5058375;28;20136;-77
2022/06/07 09:14:09;;;;;;;2.95;1.67;;;14.40;99.90;;;;;;5053539;28;20053;-79
2022/06/07 09:16:42;;;;;;;5.80;1.90;;;14.20;99.90;;;;;;5042129;28;20490;-77
2022/06/07 09:19:21;;;;;;;6.00;2.40;;;14.00;99.90;;;;;;5058739;28;20044;-76
2022/06/07 09:21:51;;;;;;;4.18;2.65;;;14.20;99.90;;;;;;5074845;28;20044;-76
2022/06/07 09:24:26;;;;;;;2.88;2.22;;;14.10;99.90;;;;;;5023909;28;20577;-76
2022/06/07 09:27:02;;;;;;;5.88;2.67;;;14.00;99.90;;;;;;5062441;28;20041;-76
2022/06/07 09:29:35;;;;;;;5.38;2.72;;;14.10;99.90;;;;;;5042295;28;20048;-76
2022/06/07 09:32:01;;;;;;;7.05;2.72;;;14.50;99.90;;;;;;5082197;28;20071;-77
2022/06/07 09:34:30;;;;;;;6.47;3.10;;;14.70;99.90;;;;;;5082520;28;20055;-78
2022/06/07 09:37:07;;;;;;;11.75;3.58;;;14.60;99.90;;;;;;5062112;28;20805;-78
2022/06/07 09:39:36;;;;;;;8.05;3.75;;;14.60;99.90;;;;;;5082530;28;20052;-76
2022/06/07 09:42:24;;;;;;;9.45;3.05;;;14.80;99.90;;;;;;5062181;28;20423;-77
2022/06/07 09:45:12;;;;;;;6.45;3.30;;;14.70;99.90;;;;;;5059843;28;20043;-74
2022/06/07 09:47:38;;;;;;;8.82;3.38;;;14.80;99.90;;;;;;5080513;28;20048;-74
2022/06/07 09:50:11;;;;;;;5.57;2.90;;;14.70;99.90;;;;;;5037487;28;20406;-74
2022/06/07 09:52:47;;;;;;;6.35;2.88;;;14.80;99.90;;;;;;5069617;28;20088;-74
2022/06/07 09:55:27;;;;;;;7.15;2.40;;;14.70;99.90;;;;;;5065324;28;20132;-74
2022/06/07 09:57:58;;;;;;;9.07;2.05;;;14.90;99.90;;;;;;5067756;28;20146;-74
2022/06/07 10:00:36;;;;;;;8.60;2.00;;;14.90;99.90;;;;;;5083286;28;20488;-75
2022/06/07 10:03:21;;;;;;;7.97;2.20;;;14.90;99.90;;;;;;5060876;28;20044;-75
2022/06/07 10:06:28;;;;;;;5.85;1.70;;;15.20;99.90;;;;;;5055546;28;20085;-74
2022/06/07 10:09:15;;;;;;;9.07;1.90;;;15.10;99.90;;;;;;5052420;28;20211;-75
2022/06/07 10:12:04;;;;;;;7.43;2.03;;;15.00;99.90;;;;;;5052130;28;20141;-75
2022/06/07 10:14:39;;;;;;;4.82;1.95;;;15.10;99.90;;;;;;5034494;28;20059;-75
2022/06/07 10:17:33;;;;;;;6.35;2.05;;;15.00;99.90;;;;;;5039226;28;20148;-75
2022/06/07 10:20:16;;;;;;;7.88;1.77;;;15.00;99.90;;;;;;5058280;28;20040;-75
2022/06/07 10:22:50;;;;;;;4.82;1.95;;;14.90;99.90;;;;;;5070866;28;20048;-76
2022/06/07 10:25:35;;;;;;;6.22;1.90;;;14.90;99.90;;;;;;5061594;28;20076;-75
2022/06/07 10:28:00;;;;;;;8.25;2.25;;;14.90;99.90;;;;;;5043482;28;20049;-75
2022/06/07 10:30:29;;;;;;;6.30;2.20;;;14.80;99.90;;;;;;5058514;28;20086;-76
2022/06/07 10:33:33;;;;;;;8.07;2.08;;;14.60;99.90;;;;;;5064023;28;20128;-76
2022/06/07 10:36:17;;;;;;;5.20;1.80;;;14.50;99.90;;;;;;5060096;28;20115;-76
2022/06/07 10:39:09;;;;;;;8.15;2.38;;;14.30;99.90;;;;;;5054611;28;20041;-75
2022/06/07 10:42:04;;;;;;;7.40;2.15;;;14.30;99.90;;;;;;5030507;28;21480;-75
2022/06/07 10:45:00;;;;;;;6.93;2.00;;;14.20;99.90;;;;;;5058219;28;20209;-75
2022/06/07 10:47:35;;;;;;;4.38;1.70;;;14.20;99.90;;;;;;5053174;28;20049;-76
2022/06/07 10:50:07;;;;;;;9.45;1.90;;;14.30;99.90;;;;;;5062594;28;20150;-75
2022/06/07 10:52:44;;;;;;;5.93;1.83;;;14.30;99.90;;;;;;5055205;28;20049;-76
2022/06/07 10:55:19;;;;;;;5.20;1.70;;;14.30;99.90;;;;;;5046692;28;20095;-76
2022/06/07 10:57:53;;;;;;;9.55;2.08;;;14.30;99.90;;;;;;5080109;28;20542;-76
2022/06/07 11:00:43;;;;;;;5.85;2.08;;;14.30;99.90;;;;;;5061737;28;20048;-76
2022/06/07 11:03:24;;;;;;;4.93;1.48;;;14.40;99.90;;;;;;5046576;28;20052;-76
2022/06/07 11:11:41;;;;;;;5.20;1.90;;;14.70;99.90;;;;;;5082188;28;20125;-75
2022/06/07 11:14:38;;;;;;;6.68;1.80;;;14.50;99.90;;;;;;5060115;28;20052;-75
2022/06/07 11:17:23;;;;;;;9.75;2.20;;;14.40;99.90;;;;;;5059193;28;20061;-75
2022/06/07 11:19:51;;;;;;;6.70;1.77;;;14.40;99.90;;;;;;5075634;28;20070;-75
2022/06/07 11:22:20;;;;;;;3.90;1.73;;;14.50;99.90;;;;;;5043069;28;20409;-75
2022/06/07 11:25:19;;;;;;;6.82;2.25;;;14.80;99.90;;;;;;5051095;28;20060;-75
2022/06/07 11:27:58;;;;;;;5.28;1.75;;;14.90;99.90;;;;;;5035430;28;20057;-75
2022/06/07 11:30:33;;;;;;;5.30;1.92;;;15.00;99.90;;;;;;5061960;28;20099;-75
2022/06/07 11:32:59;;;;;;;4.57;1.88;;;15.40;99.90;;;;;;5080296;28;20600;-75
2022/06/07 11:35:49;;;;;;;6.25;2.20;;;15.90;99.90;;;;;;5079624;28;20056;-74
2022/06/07 11:38:17;;;;;;;6.72;1.50;;;15.60;99.90;;;;;;5080801;28;20401;-75
2022/06/07 11:40:45;;;;;;;6.50;3.45;;;15.60;99.90;;;;;;5045139;28;20049;-74
2022/06/07 11:43:49;;;;;;;6.10;1.73;;;15.40;99.90;;;;;;5080636;28;20477;-75
2022/06/07 11:46:35;;;;;;;4.82;1.63;;;15.20;99.90;;;;;;5053798;28;20044;-74
2022/06/07 11:49:22;;;;;;;4.65;1.60;;;15.20;99.90;;;;;;5076305;28;20045;-76
2022/06/07 11:52:02;;;;;;;7.78;2.10;;;15.10;99.90;;;;;;5044294;28;20496;-75
2022/06/07 11:54:46;;;;;;;3.55;1.70;;;15.00;99.90;;;;;;5050268;28;20276;-76
2022/06/07 11:57:17;;;;;;;7.68;2.13;;;14.90;99.90;;;;;;5065137;28;20068;-74
2022/06/07 11:59:50;;;;;;;7.47;1.77;;;14.90;99.90;;;;;;5084648;28;20090;-75
2022/06/07 12:02:16;;;;;;;3.85;1.77;;;14.80;99.90;;;;;;5084480;28;20450;-76
2022/06/07 12:04:41;;;;;;;3.75;1.58;;;14.70;99.90;;;;;;5034412;28;20088;-76
2022/06/07 12:07:51;;;;;;;5.82;1.90;;;14.70;99.90;;;;;;5066660;28;20048;-75
2022/06/07 12:10:16;;;;;;;4.47;1.83;;;14.60;99.90;;;;;;5015205;28;20060;-74
2022/06/07 12:12:50;;;;;;;7.63;1.88;;;14.60;99.90;;;;;;5048026;28;20049;-74
2022/06/07 12:15:28;;;;;;;7.15;1.80;;;14.70;99.90;;;;;;5059811;28;20505;-75
2022/06/07 12:18:14;;;;;;;7.72;1.98;;;14.70;99.90;;;;;;5080218;28;20045;-74
2022/06/07 12:20:41;;;;;;;7.18;1.85;;;14.80;99.90;;;;;;5064819;28;20049;-75
2022/06/07 12:23:32;;;;;;;6.47;1.58;;;15.00;99.90;;;;;;5053841;28;20067;-75
2022/06/07 12:26:06;;;;;;;5.47;1.77;;;15.20;99.90;;;;;;5032384;28;20041;-75
2022/06/07 12:28:35;;;;;;;3.65;1.77;;;15.60;99.90;;;;;;5028914;28;20180;-76
2022/06/07 12:31:23;;;;;;;6.75;1.83;;;15.80;99.90;;;;;;5070830;28;20080;-75
2022/06/07 12:33:51;;;;;;;4.65;1.85;;;16.00;99.90;;;;;;5084111;28;20045;-77
2022/06/07 12:36:25;;;;;;;7.65;1.80;;;16.30;99.90;;;;;;5053560;28;20147;-75
2022/06/07 12:38:51;;;;;;;5.40;2.03;;;16.50;99.90;;;;;;5049484;28;20079;-75
2022/06/07 12:41:23;;;;;;;6.68;1.92;;;16.80;99.90;;;;;;5038248;28;20500;-76
2022/06/07 12:43:53;;;;;;;6.95;1.67;;;16.70;99.90;;;;;;5076227;28;20041;-77
2022/06/07 12:46:23;;;;;;;8.20;1.92;;;16.60;99.90;;;;;;5066666;28;20182;-76
2022/06/07 12:48:50;;;;;;;8.07;2.00;;;16.40;99.90;;;;;;5051925;28;20060;-75
2022/06/07 12:51:34;;;;;;;11.63;2.30;;;16.50;99.90;;;;;;5059435;28;20397;-76
2022/06/07 12:54:23;;;;;;;5.90;2.22;;;16.60;99.90;;;;;;5062734;28;20076;-76
2022/06/07 12:56:52;;;;;;;7.57;2.00;;;16.20;99.90;;;;;;5051481;28;20037;-76
2022/06/07 12:59:22;;;;;;;5.78;1.90;;;16.10;99.90;;;;;;5064604;28;20080;-75
2022/06/07 13:01:50;;;;;;;6.65;2.10;;;15.90;99.90;;;;;;5063164;28;20049;-75
2022/06/07 13:04:35;;;;;;;6.70;2.00;;;15.90;99.90;;;;;;5058032;28;20064;-74
2022/06/07 13:07:07;;;;;;;6.65;2.00;;;15.90;99.90;;;;;;5051234;28;20080;-75
2022/06/07 13:09:33;;;;;;;8.38;2.15;;;16.10;99.90;;;;;;5074934;28;20083;-74
2022/06/07 13:11:59;;;;;;;6.25;2.38;;;16.40;99.90;;;;;;5035503;28;20115;-75
2022/06/07 13:14:26;;;;;;;5.38;2.10;;;16.50;99.90;;;;;;5068239;28;20045;-75
2022/06/07 13:16:53;;;;;;;7.38;2.13;;;16.30;99.90;;;;;;5034664;28;20067;-76